Time;durP1;ratioP1;P1;durP2;ratioP2;P2;SDS_P1;SDS_P2;PMS_P1;PMS_P2;Temp;Humidity;BMP_temperature;BMP_pressure;BME280_temperature;BME280_humidity;BME280_pressure;Samples;Min_cycle;Max_cycle;Signal;HPM_P1;HPM_P2
2023/05/16 10:20:53;;;;;;;19.55;17.70;;;21.70;99.90;;;;;;6238360;22;20168;31
2023/05/16 10:29:31;;;;;;;20.40;18.90;;;22.40;99.90;;;;;;6225651;22;20358;-93
2023/05/16 11:28:21;;;;;;;19.23;17.90;;;21.20;99.90;;;;;;6215777;22;20218;-91
2023/05/16 11:33:26;;;;;;;19.40;17.15;;;21.50;99.90;;;;;;6192242;23;20053;-93
2023/05/16 11:36:08;;;;;;;19.90;18.42;;;21.20;99.90;;;;;;6188757;22;20337;-91
2023/05/16 11:38:35;;;;;;;20.27;18.50;;;21.50;99.90;;;;;;6226099;22;20071;-87
2023/05/16 11:41:04;;;;;;;20.00;17.92;;;21.40;99.90;;;;;;6226011;22;20000;-91
2023/05/16 11:43:41;;;;;;;20.48;18.63;;;20.90;99.90;;;;;;6226538;22;20011;-87
2023/05/16 11:46:15;;;;;;;19.98;18.58;;;21.10;99.90;;;;;;6224927;22;20433;-87
2023/05/16 11:48:41;;;;;;;20.77;18.48;;;21.40;99.90;;;;;;6225514;22;20015;-87
2023/05/16 11:51:08;;;;;;;24.13;18.50;;;21.60;99.90;;;;;;6225815;22;20000;-87
2023/05/16 11:53:36;;;;;;;19.65;18.08;;;21.50;99.90;;;;;;6225625;22;20012;-86
2023/05/16 11:56:03;;;;;;;19.60;17.70;;;21.10;99.90;;;;;;6225556;22;20094;-86
2023/05/16 11:58:30;;;;;;;20.75;17.80;;;20.70;99.90;;;;;;6225535;22;20448;-88
2023/05/16 12:00:56;;;;;;;25.83;19.25;;;20.50;99.90;;;;;;6225541;22;20011;-86
2023/05/16 12:03:23;;;;;;;19.98;18.15;;;20.40;99.90;;;;;;6225750;22;20030;-88
2023/05/16 12:05:55;;;;;;;20.85;18.80;;;20.50;99.90;;;;;;6225236;22;20501;-87
2023/05/16 12:08:23;;;;;;;21.30;19.00;;;20.30;99.90;;;;;;6225711;22;20008;-87
2023/05/16 12:10:51;;;;;;;22.83;18.45;;;20.80;99.90;;;;;;6225741;22;20000;-87
2023/05/16 12:13:24;;;;;;;28.52;19.25;;;20.20;99.90;;;;;;6225524;22;20091;-89
2023/05/16 12:15:52;;;;;;;22.55;19.77;;;20.30;99.90;;;;;;6226097;22;20043;-86
2023/05/16 12:18:20;;;;;;;23.35;19.65;;;20.30;99.90;;;;;;6225364;22;20010;-88
2023/05/16 12:20:51;;;;;;;26.23;18.70;;;20.10;99.90;;;;;;6226183;22;20008;-91
2023/05/16 12:23:21;;;;;;;20.30;18.13;;;20.30;99.90;;;;;;6225198;23;20004;-91
2023/05/16 12:25:48;;;;;;;23.58;18.00;;;20.70;99.90;;;;;;6264555;22;20025;-95
2023/05/16 12:28:15;;;;;;;19.30;17.60;;;21.20;99.90;;;;;;6251035;22;20023;-91
2023/05/16 12:30:46;;;;;;;19.33;17.65;;;20.90;99.90;;;;;;6225639;22;20025;-91
2023/05/16 12:33:16;;;;;;;18.83;17.42;;;20.90;99.90;;;;;;6250745;22;20008;-94
2023/05/16 12:35:44;;;;;;;19.08;17.67;;;20.90;99.90;;;;;;6229383;22;20011;-92
2023/05/16 12:38:13;;;;;;;18.98;17.52;;;21.40;99.90;;;;;;6227908;22;20008;-91
2023/05/16 12:40:42;;;;;;;19.80;17.92;;;21.40;99.90;;;;;;6252493;22;20328;-93
2023/05/16 12:43:27;;;;;;;19.30;17.77;;;21.50;99.90;;;;;;6227563;22;20031;-94
2023/05/16 12:46:01;;;;;;;21.35;18.92;;;21.50;99.90;;;;;;6253496;22;20448;-93
2023/05/16 12:48:53;;;;;;;;;;;;;;;;;;;;;
2023/05/16 12:51:39;;;;;;;20.65;19.05;;;22.10;99.90;;;;;;6253930;22;19928;-93
2023/05/16 12:54:13;;;;;;;19.60;17.70;;;22.00;99.90;;;;;;6228007;22;20007;-92
2023/05/16 12:57:00;;;;;;;20.05;18.65;;;22.00;99.90;;;;;;6253820;22;20306;-92
2023/05/16 13:00:01;;;;;;;20.35;18.95;;;22.20;99.90;;;;;;6255390;22;20099;-93
2023/05/16 13:02:28;;;;;;;20.45;19.30;;;22.30;99.90;;;;;;6227138;22;20011;-93
2023/05/16 13:04:54;;;;;;;20.10;18.90;;;22.40;99.90;;;;;;6252377;22;20007;-93
2023/05/16 13:07:20;;;;;;;20.38;18.88;;;22.10;99.90;;;;;;6227363;22;20003;-93
2023/05/16 13:09:47;;;;;;;20.85;18.98;;;22.20;99.90;;;;;;6252270;22;20007;-93
2023/05/16 13:12:20;;;;;;;20.77;19.08;;;22.20;99.90;;;;;;6227389;22;20029;-91
2023/05/16 13:14:47;;;;;;;20.95;18.90;;;22.30;99.90;;;;;;6253857;22;20053;-91
2023/05/16 13:17:13;;;;;;;20.88;18.88;;;21.90;99.90;;;;;;6227067;22;20384;-93
2023/05/16 13:19:40;;;;;;;20.15;18.42;;;21.60;99.90;;;;;;6251934;22;20008;-92
2023/05/16 13:22:06;;;;;;;20.20;18.55;;;21.40;99.90;;;;;;6227007;22;20016;-91
2023/05/16 13:24:33;;;;;;;20.55;19.05;;;21.40;99.90;;;;;;6252534;22;20011;-93
2023/05/16 13:26:59;;;;;;;20.50;18.90;;;21.60;99.90;;;;;;6221574;23;20023;-90
2023/05/16 13:29:26;;;;;;;21.10;19.27;;;21.40;99.90;;;;;;6246989;23;20027;-92
2023/05/16 13:31:52;;;;;;;20.60;19.10;;;21.50;99.90;;;;;;6221813;23;20418;-93
2023/05/16 13:34:19;;;;;;;20.40;18.95;;;21.60;99.90;;;;;;6246994;23;20373;-92
2023/05/16 13:36:46;;;;;;;21.40;19.63;;;21.80;99.90;;;;;;6222096;23;20027;-92
2023/05/16 13:39:13;;;;;;;20.73;19.23;;;22.00;99.90;;;;;;6247011;23;20004;-93
2023/05/16 13:42:02;;;;;;;20.65;19.35;;;21.90;99.90;;;;;;6221853;23;20030;-92
2023/05/16 13:44:37;;;;;;;28.38;19.27;;;22.10;99.90;;;;;;6239948;23;20012;-92
2023/05/16 13:47:21;;;;;;;21.27;19.45;;;21.70;99.90;;;;;;6200070;23;20004;-93
2023/05/16 13:49:48;;;;;;;20.05;18.70;;;21.50;99.90;;;;;;6223363;23;20407;-91
2023/05/16 14:04:58;;;;;;;21.55;18.92;;;22.00;99.90;;;;;;6178011;23;20012;-93
2023/05/16 14:20:30;;;;;;;19.13;17.70;;;21.40;99.90;;;;;;6226883;22;20089;-93
2023/05/16 14:22:59;;;;;;;19.83;18.13;;;21.50;99.90;;;;;;6222055;23;20074;-92
2023/05/16 14:25:25;;;;;;;19.33;17.70;;;21.20;99.90;;;;;;6221295;23;20004;-93
2023/05/16 14:27:55;;;;;;;22.85;17.92;;;21.40;99.90;;;;;;6246493;23;20012;-91
2023/05/16 14:30:25;;;;;;;19.70;18.00;;;21.50;99.90;;;;;;6246266;23;20011;-91
2023/05/16 14:32:51;;;;;;;20.13;18.23;;;22.00;99.90;;;;;;6246776;22;20425;-93
2023/05/16 14:35:18;;;;;;;20.05;18.25;;;22.10;99.90;;;;;;6246097;23;20437;-93
2023/05/16 14:37:45;;;;;;;19.80;18.27;;;21.90;99.90;;;;;;6221196;23;20004;-92
2023/05/16 14:40:11;;;;;;;20.10;18.13;;;21.80;99.90;;;;;;6246939;23;20011;-90
2023/05/16 14:42:38;;;;;;;21.02;17.80;;;21.90;99.90;;;;;;6220825;23;20050;-92
2023/05/16 14:45:05;;;;;;;19.95;18.08;;;21.40;99.90;;;;;;6246401;23;20433;-92
2023/05/16 14:47:32;;;;;;;19.73;18.15;;;21.10;99.90;;;;;;6220993;23;20004;-91
2023/05/16 14:49:59;;;;;;;19.40;17.80;;;21.10;99.90;;;;;;6221224;23;20008;-92
2023/05/16 14:52:26;;;;;;;20.08;18.13;;;21.30;99.90;;;;;;6246522;22;20020;-91
2023/05/16 14:54:55;;;;;;;19.92;18.08;;;21.10;99.90;;;;;;6246302;23;20004;-92
2023/05/16 14:57:25;;;;;;;20.02;17.83;;;21.10;99.90;;;;;;6245826;23;20064;-91
2023/05/16 14:59:51;;;;;;;18.88;17.23;;;20.90;99.90;;;;;;6221807;23;20000;-93
2023/05/16 15:02:20;;;;;;;19.38;16.58;;;20.90;99.90;;;;;;6221950;23;20015;-94
2023/05/16 15:04:47;;;;;;;18.75;16.80;;;20.80;99.90;;;;;;6246160;23;20004;-92
2023/05/16 15:07:13;;;;;;;19.83;17.25;;;20.90;99.90;;;;;;6221012;23;20372;-90
2023/05/16 15:09:40;;;;;;;17.75;16.45;;;21.20;99.90;;;;;;6246271;23;20468;-91
2023/05/16 15:12:06;;;;;;;19.08;16.50;;;21.20;99.90;;;;;;6221371;23;20008;-90
2023/05/16 15:14:33;;;;;;;18.88;17.05;;;21.10;99.90;;;;;;6220914;23;20000;-90
2023/05/16 15:16:59;;;;;;;18.63;16.77;;;20.90;99.90;;;;;;6245852;23;20416;-92
2023/05/16 15:19:26;;;;;;;19.55;16.70;;;20.90;99.90;;;;;;6245911;23;20004;-91
2023/05/16 15:21:52;;;;;;;18.70;17.08;;;20.90;99.90;;;;;;6220315;22;20518;-90
2023/05/16 15:24:19;;;;;;;18.58;16.98;;;20.80;99.90;;;;;;6222848;23;20088;-91
2023/05/16 15:26:45;;;;;;;17.85;16.65;;;20.80;99.90;;;;;;6245760;23;20102;-92
2023/05/16 15:29:11;;;;;;;18.25;16.77;;;20.80;99.90;;;;;;6247883;23;20035;-91
2023/05/16 15:31:38;;;;;;;18.25;16.80;;;20.90;99.90;;;;;;6220751;23;20007;-92
2023/05/16 15:34:06;;;;;;;19.05;17.10;;;20.90;99.90;;;;;;6221050;23;20004;-91
2023/05/16 15:36:34;;;;;;;18.27;16.75;;;20.90;99.90;;;;;;6246598;23;20103;-91
2023/05/16 15:39:00;;;;;;;18.40;17.08;;;20.80;99.90;;;;;;6254072;22;20425;-93
2023/05/16 15:41:26;;;;;;;18.52;17.05;;;20.70;99.90;;;;;;6245538;23;20134;-91
2023/05/16 15:43:53;;;;;;;18.48;17.02;;;20.70;99.90;;;;;;6220586;23;20004;-91
2023/05/16 15:46:20;;;;;;;18.38;16.77;;;20.30;99.90;;;;;;6222562;23;20035;-91
2023/05/16 15:48:46;;;;;;;19.02;17.30;;;20.10;99.90;;;;;;6245942;23;20012;-92
2023/05/16 15:51:14;;;;;;;18.92;17.02;;;20.40;99.90;;;;;;6220517;23;20019;-92
2023/05/16 15:53:41;;;;;;;18.20;16.80;;;20.70;99.90;;;;;;6220048;23;20034;-92
2023/05/16 15:56:08;;;;;;;18.98;17.23;;;20.80;99.90;;;;;;6220947;23;20012;-93
2023/05/16 15:58:35;;;;;;;18.33;16.80;;;20.80;99.90;;;;;;6220941;23;20008;-91
2023/05/16 16:01:02;;;;;;;18.30;16.42;;;20.60;99.90;;;;;;6248705;23;20010;-91
2023/05/16 16:03:29;;;;;;;18.52;16.92;;;20.70;99.90;;;;;;6220858;23;20054;-93
2023/05/16 16:06:04;;;;;;;20.00;17.48;;;20.60;99.90;;;;;;6246206;23;20004;-93
2023/05/16 16:08:55;;;;;;;18.35;17.00;;;20.60;99.90;;;;;;6228768;23;20334;-92
2023/05/16 16:11:23;;;;;;;18.58;16.80;;;20.60;99.90;;;;;;6248433;23;20007;-91
2023/05/16 16:13:50;;;;;;;18.00;16.80;;;20.40;99.90;;;;;;6222621;23;20067;-92
2023/05/16 16:16:17;;;;;;;19.77;17.88;;;20.30;99.90;;;;;;6222539;23;20020;-93
2023/05/16 16:18:44;;;;;;;19.70;17.67;;;20.20;99.90;;;;;;6222232;23;20036;-92
2023/05/16 16:21:11;;;;;;;19.90;17.63;;;20.10;99.90;;;;;;6247112;23;20020;-93
2023/05/16 16:23:38;;;;;;;19.60;17.73;;;20.10;99.90;;;;;;6247633;22;20031;-92
2023/05/16 16:26:05;;;;;;;23.95;18.83;;;20.10;99.90;;;;;;6222255;23;20008;-94
2023/05/16 16:28:32;;;;;;;20.02;18.20;;;19.80;99.90;;;;;;6222266;23;20065;-94
2023/05/16 16:30:58;;;;;;;20.17;18.20;;;19.70;99.90;;;;;;6247695;22;20004;-91
2023/05/16 16:33:25;;;;;;;20.98;18.80;;;19.60;99.90;;;;;;6247301;22;20012;-93
2023/05/16 16:35:54;;;;;;;29.30;19.88;;;19.60;99.90;;;;;;6247820;23;20012;-91
2023/05/16 16:38:20;;;;;;;20.85;18.60;;;19.50;99.90;;;;;;6247603;22;20014;-91
2023/05/16 16:40:47;;;;;;;21.02;18.83;;;19.30;99.90;;;;;;6222093;23;20000;-90
2023/05/16 16:43:14;;;;;;;20.45;18.30;;;19.30;99.90;;;;;;6246977;22;20445;-91
2023/05/16 16:45:40;;;;;;;22.50;17.85;;;19.10;99.90;;;;;;6222533;23;20008;-94
2023/05/16 16:48:08;;;;;;;21.23;18.40;;;19.00;99.90;;;;;;6247548;23;20046;-92
2023/05/16 16:50:34;;;;;;;29.08;18.38;;;19.00;99.90;;;;;;6222095;23;20005;-92
2023/05/16 16:53:03;;;;;;;30.58;17.73;;;18.70;99.90;;;;;;6247198;22;20442;-92
2023/05/16 16:55:30;;;;;;;22.38;17.35;;;18.70;99.90;;;;;;6222429;23;20079;-92
2023/05/16 16:57:57;;;;;;;22.85;16.58;;;18.70;99.90;;;;;;6246944;23;20014;-91
2023/05/16 17:00:23;;;;;;;21.35;15.80;;;18.60;99.90;;;;;;6247428;23;20000;-93
2023/05/16 17:02:50;;;;;;;22.58;15.35;;;18.50;99.90;;;;;;6222126;23;20094;-92
2023/05/16 17:05:17;;;;;;;25.45;15.23;;;18.30;99.90;;;;;;6247972;22;20000;-93
2023/05/16 17:07:43;;;;;;;18.90;14.23;;;18.30;99.90;;;;;;6247243;23;20012;-92
2023/05/16 17:10:10;;;;;;;29.42;14.25;;;18.30;99.90;;;;;;6247281;23;20032;-91
2023/05/16 17:12:45;;;;;;;23.95;14.13;;;18.20;99.90;;;;;;6248174;23;20012;-93
2023/05/16 17:15:12;;;;;;;25.58;14.05;;;18.20;99.90;;;;;;6221769;23;20008;-94
2023/05/16 17:17:38;;;;;;;27.48;13.63;;;18.10;99.90;;;;;;6247258;23;20138;-91
2023/05/16 17:20:08;;;;;;;24.63;13.45;;;18.10;99.90;;;;;;6221538;23;20007;-93
2023/05/16 17:22:35;;;;;;;36.50;14.55;;;18.00;99.90;;;;;;6247151;23;20008;-92
2023/05/16 17:25:02;;;;;;;35.15;14.40;;;18.00;99.90;;;;;;6221903;23;20004;-91
2023/05/16 17:27:29;;;;;;;28.42;14.38;;;17.90;99.90;;;;;;6249051;22;20011;-90
2023/05/16 17:29:56;;;;;;;25.35;13.05;;;17.90;99.90;;;;;;6222041;23;20054;-90
2023/05/16 17:32:22;;;;;;;24.50;12.82;;;17.90;99.90;;;;;;6247082;23;20004;-90
2023/05/16 17:34:49;;;;;;;34.80;13.35;;;17.80;99.90;;;;;;6221982;23;20064;-92
2023/05/16 17:37:15;;;;;;;26.65;13.70;;;17.90;99.90;;;;;;6248402;23;20322;-92
2023/05/16 17:39:41;;;;;;;21.98;13.30;;;17.80;99.90;;;;;;6221856;23;20004;-92
2023/05/16 17:42:09;;;;;;;32.35;13.80;;;17.80;99.90;;;;;;6247015;23;20495;-93
2023/05/16 17:44:36;;;;;;;32.17;13.18;;;17.70;99.90;;;;;;6221497;22;20000;-91
2023/05/16 17:47:02;;;;;;;31.27;12.90;;;17.60;99.90;;;;;;6248870;23;20016;-89
2023/05/16 17:49:29;;;;;;;34.47;13.27;;;17.60;99.90;;;;;;6252623;23;20007;-90
2023/05/16 17:51:57;;;;;;;28.92;13.13;;;17.50;99.90;;;;;;6249710;23;20008;-90
2023/05/16 17:54:25;;;;;;;30.83;13.27;;;17.60;99.90;;;;;;6222371;23;20004;-90
2023/05/16 17:56:53;;;;;;;30.05;12.00;;;17.50;99.90;;;;;;6248052;22;20027;-91
2023/05/16 17:59:20;;;;;;;26.77;12.25;;;17.50;99.90;;;;;;6222098;23;20008;-91
2023/05/16 18:01:47;;;;;;;33.55;12.40;;;17.50;99.90;;;;;;6246873;23;20034;-91
2023/05/16 18:04:14;;;;;;;35.22;11.32;;;17.50;99.90;;;;;;6246782;22;20035;-91
2023/05/16 18:06:40;;;;;;;31.00;11.93;;;17.40;99.90;;;;;;6246656;22;20025;-91
2023/05/16 18:09:08;;;;;;;29.88;12.73;;;17.40;99.90;;;;;;6248746;22;20086;-91
2023/05/16 18:11:37;;;;;;;35.35;11.77;;;17.40;99.90;;;;;;6221967;23;20434;-92
2023/05/16 18:14:04;;;;;;;35.88;12.05;;;17.40;99.90;;;;;;6246907;22;20092;-92
2023/05/16 18:16:36;;;;;;;37.13;11.10;;;17.30;99.90;;;;;;6221259;23;20012;-94
2023/05/16 18:19:07;;;;;;;28.90;11.40;;;17.30;99.90;;;;;;6246530;23;20430;-92
2023/05/16 18:21:44;;;;;;;32.47;10.68;;;17.40;99.90;;;;;;6239015;22;20084;-93
2023/05/16 18:24:11;;;;;;;37.17;11.27;;;17.30;99.90;;;;;;6192685;23;20430;-90
2023/05/16 18:26:47;;;;;;;37.30;11.48;;;17.30;99.90;;;;;;6218089;23;20008;-93
2023/05/16 18:29:14;;;;;;;36.40;11.55;;;17.30;99.90;;;;;;6242862;23;20103;-92
2023/05/16 18:32:02;;;;;;;44.50;12.90;;;17.30;99.90;;;;;;6216606;23;20013;-91
2023/05/16 18:34:29;;;;;;;30.38;11.68;;;17.30;99.90;;;;;;6245387;23;20039;-91
2023/05/16 18:36:58;;;;;;;36.03;11.65;;;17.30;99.90;;;;;;6224593;23;20012;-92
2023/05/16 18:39:24;;;;;;;28.80;10.75;;;17.20;99.90;;;;;;6241436;23;20016;-90
2023/05/16 18:41:51;;;;;;;37.40;11.85;;;17.20;99.90;;;;;;6216334;23;20028;-93
2023/05/16 18:44:19;;;;;;;35.83;12.32;;;17.20;99.90;;;;;;6241159;23;20009;-92
2023/05/16 18:46:45;;;;;;;36.20;11.73;;;17.20;99.90;;;;;;6216227;23;20435;-92
2023/05/16 18:49:12;;;;;;;38.08;11.13;;;17.20;99.90;;;;;;6216770;23;20004;-91
2023/05/16 18:51:39;;;;;;;33.80;10.77;;;17.20;99.90;;;;;;6217917;23;20012;-91
2023/05/16 18:54:08;;;;;;;26.42;10.98;;;17.20;99.90;;;;;;6216585;23;20099;-93
2023/05/16 18:56:45;;;;;;;28.25;11.30;;;17.10;99.90;;;;;;6239073;22;20024;-95
2023/05/16 18:59:12;;;;;;;38.95;11.32;;;17.10;99.90;;;;;;6216459;23;20084;-93
2023/05/16 19:01:38;;;;;;;29.85;10.55;;;17.10;99.90;;;;;;6216396;23;20009;-91
2023/05/16 19:04:05;;;;;;;32.63;11.18;;;17.10;99.90;;;;;;6240971;23;20011;-90
2023/05/16 19:06:31;;;;;;;33.53;11.18;;;17.10;99.90;;;;;;6215671;23;20031;-91
2023/05/16 19:09:00;;;;;;;35.42;10.93;;;17.10;99.90;;;;;;6216169;23;20028;-93
2023/05/16 19:11:26;;;;;;;46.47;10.85;;;17.10;99.90;;;;;;6216570;23;20009;-94
2023/05/16 19:13:53;;;;;;;34.60;11.23;;;17.10;99.90;;;;;;6245632;23;20008;-93
2023/05/16 19:16:19;;;;;;;26.58;10.40;;;17.10;99.90;;;;;;6215843;23;20015;-91
2023/05/16 19:18:46;;;;;;;36.38;11.90;;;17.10;99.90;;;;;;6215245;23;20035;-90
2023/05/16 19:21:13;;;;;;;32.85;11.15;;;17.00;99.90;;;;;;6216322;23;20021;-91
2023/05/16 19:23:39;;;;;;;45.92;11.93;;;17.00;99.90;;;;;;6240600;23;20010;-91
2023/05/16 19:26:05;;;;;;;32.85;11.85;;;17.00;99.90;;;;;;6215357;23;20438;-90
2023/05/16 19:28:32;;;;;;;49.17;11.50;;;17.00;99.90;;;;;;6215400;23;20008;-92
2023/05/16 19:30:58;;;;;;;28.55;12.65;;;16.90;99.90;;;;;;6240963;23;20012;-91
2023/05/16 19:33:28;;;;;;;33.65;11.48;;;16.90;99.90;;;;;;6215670;23;20079;-92
2023/05/16 19:38:54;;;;;;;36.95;11.60;;;16.90;99.90;;;;;;6236681;22;20028;-94
2023/05/16 19:41:22;;;;;;;35.28;10.15;;;16.90;99.90;;;;;;6200692;23;20075;-94
2023/05/16 19:43:49;;;;;;;35.17;10.65;;;16.90;99.90;;;;;;6201861;22;19993;-93
2023/05/16 19:46:43;;;;;;;;;;;;;;;;;;;;;
2023/05/16 19:59:50;;;;;;;38.67;10.35;;;16.70;99.90;;;;;;6247360;22;20085;-93
2023/05/16 20:03:28;;;;;;;27.17;10.15;;;16.70;99.90;;;;;;6257887;22;20004;-93
2023/05/16 20:17:42;;;;;;;26.17;9.18;;;16.70;99.90;;;;;;6278376;22;20030;-95
2023/05/16 20:20:09;;;;;;;31.40;8.95;;;16.70;99.90;;;;;;6196674;23;20012;-92
2023/05/16 20:22:40;;;;;;;21.00;8.35;;;16.60;99.90;;;;;;6199818;23;20012;-93
2023/05/16 20:25:42;;;;;;;24.85;9.00;;;16.50;99.90;;;;;;6204885;23;20008;-93
2023/05/16 20:28:29;;;;;;;24.08;8.38;;;16.50;99.90;;;;;;6224730;23;20012;-91
2023/05/16 20:31:05;;;;;;;21.02;7.32;;;16.50;99.90;;;;;;6224731;23;20030;-92
2023/05/16 20:33:32;;;;;;;16.90;7.82;;;16.50;99.90;;;;;;6198941;23;20066;-94
2023/05/16 20:35:58;;;;;;;22.48;7.70;;;16.40;99.90;;;;;;6197767;23;20083;-93
2023/05/16 20:38:25;;;;;;;18.42;7.60;;;16.40;99.90;;;;;;6195530;23;20012;-94
2023/05/16 20:40:52;;;;;;;17.23;7.68;;;16.50;99.90;;;;;;6220643;23;20054;-93
2023/05/16 20:43:18;;;;;;;17.08;6.70;;;16.50;99.90;;;;;;6220781;23;20067;-93
2023/05/16 20:45:47;;;;;;;20.20;7.50;;;16.50;99.90;;;;;;6220215;23;20012;-92
2023/05/16 20:48:17;;;;;;;15.45;7.05;;;16.50;99.90;;;;;;6195653;23;20016;-92
2023/05/16 20:50:45;;;;;;;15.30;7.15;;;16.40;99.90;;;;;;6220353;23;20028;-94
2023/05/16 20:53:12;;;;;;;18.55;7.07;;;16.40;99.90;;;;;;6220629;23;20009;-92
2023/05/16 20:55:45;;;;;;;23.13;7.80;;;16.40;99.90;;;;;;6220703;23;20016;-91
2023/05/16 20:58:11;;;;;;;14.95;7.88;;;16.40;99.90;;;;;;6197176;23;20016;-92
2023/05/16 21:00:38;;;;;;;19.63;7.63;;;16.40;99.90;;;;;;6221789;23;20334;-92
2023/05/16 21:03:04;;;;;;;21.10;7.88;;;16.30;99.90;;;;;;6220017;23;20083;-92
2023/05/16 21:05:32;;;;;;;24.13;7.55;;;16.30;99.90;;;;;;6222276;23;20004;-92
2023/05/16 21:07:58;;;;;;;17.20;7.28;;;16.30;99.90;;;;;;6222007;23;20004;-91
2023/05/16 21:10:25;;;;;;;25.17;7.75;;;16.30;99.90;;;;;;6221634;23;20421;-93
2023/05/16 21:12:51;;;;;;;21.75;7.30;;;16.20;99.90;;;;;;6221777;23;20012;-92
2023/05/16 21:15:19;;;;;;;18.45;7.55;;;16.30;99.90;;;;;;6221496;23;20013;-92
2023/05/16 21:17:46;;;;;;;18.45;8.20;;;16.20;99.90;;;;;;6222675;23;20016;-93
2023/05/16 21:20:16;;;;;;;20.75;7.78;;;16.20;99.90;;;;;;6221931;23;20083;-93
2023/05/16 21:22:43;;;;;;;14.88;7.05;;;16.20;99.90;;;;;;6221120;23;20052;-93
2023/05/16 21:25:13;;;;;;;14.75;6.50;;;16.20;99.90;;;;;;6222304;23;20087;-92
2023/05/16 21:27:39;;;;;;;23.45;7.05;;;16.20;99.90;;;;;;6222017;23;20004;-94
2023/05/16 21:30:06;;;;;;;15.55;6.47;;;16.10;99.90;;;;;;6222653;23;20008;-92
2023/05/16 21:32:33;;;;;;;18.50;6.57;;;16.20;99.90;;;;;;6204841;23;20000;-91
2023/05/16 21:34:59;;;;;;;22.75;6.65;;;16.10;99.90;;;;;;6222166;23;20008;-91
2023/05/16 21:37:26;;;;;;;16.90;6.05;;;16.10;99.90;;;;;;6221997;23;20012;-92
2023/05/16 21:39:53;;;;;;;15.48;7.07;;;16.10;99.90;;;;;;6221656;23;20341;-91
2023/05/16 21:42:24;;;;;;;28.25;6.72;;;16.10;99.90;;;;;;6224174;23;20008;-91
2023/05/16 21:44:56;;;;;;;18.55;6.28;;;16.10;99.90;;;;;;6197302;23;20011;-93
2023/05/16 21:47:25;;;;;;;16.55;7.38;;;16.00;99.90;;;;;;6196532;23;20004;-94
2023/05/16 21:53:03;;;;;;;19.23;7.00;;;16.00;99.90;;;;;;6158932;23;20080;-92
2023/05/16 21:55:32;;;;;;;22.98;7.38;;;16.00;99.90;;;;;;6132504;23;20009;-92
2023/05/16 21:57:58;;;;;;;20.00;7.63;;;16.00;99.90;;;;;;6110801;23;20005;-93
2023/05/16 22:00:25;;;;;;;29.85;7.68;;;15.90;99.90;;;;;;6109953;23;20021;-91
2023/05/16 22:06:50;;;;;;;14.77;6.10;;;15.90;99.90;;;;;;6234826;22;20030;-93
2023/05/16 22:12:19;;;;;;;26.58;7.72;;;15.90;99.90;;;;;;6281611;22;20077;-94
2023/05/16 22:18:22;;;;;;;21.40;7.78;;;15.90;99.90;;;;;;6275552;22;20025;-93
2023/05/16 22:20:49;;;;;;;21.52;6.82;;;15.90;99.90;;;;;;6218662;23;20004;-92
2023/05/16 22:23:16;;;;;;;23.92;7.85;;;15.90;99.90;;;;;;6196971;23;20004;-94
2023/05/16 22:28:37;;;;;;;23.67;7.85;;;15.90;99.90;;;;;;6223362;23;20024;-93
2023/05/16 22:31:27;;;;;;;17.52;8.32;;;15.90;99.90;;;;;;6174365;23;20008;-93
2023/05/16 22:33:54;;;;;;;26.15;8.10;;;15.90;99.90;;;;;;6167035;23;20020;-91
2023/05/16 22:36:32;;;;;;;30.10;8.43;;;15.90;99.90;;;;;;6162300;23;20008;-91
2023/05/16 22:39:27;;;;;;;31.25;10.18;;;15.90;99.90;;;;;;6179614;22;20103;-94
2023/05/16 22:45:53;;;;;;;46.27;10.77;;;16.00;99.90;;;;;;6213954;23;20446;-93
2023/05/16 22:52:20;;;;;;;32.22;10.40;;;16.00;99.90;;;;;;6125861;23;20010;-94
2023/05/16 22:55:05;;;;;;;43.30;12.18;;;16.00;99.90;;;;;;6079656;23;20014;-93
2023/05/16 22:57:44;;;;;;;29.80;10.80;;;16.00;99.90;;;;;;6196992;23;20020;-94
2023/05/16 23:00:21;;;;;;;;;;;;;;;;;;;;;
2023/05/16 23:03:03;;;;;;;47.53;12.93;;;16.10;99.90;;;;;;6246687;23;20032;-93
2023/05/16 23:05:41;;;;;;;50.22;12.68;;;16.10;99.90;;;;;;6221187;23;20000;-93
2023/05/16 23:08:13;;;;;;;31.60;11.85;;;16.10;99.90;;;;;;6222324;23;20008;-94
2023/05/16 23:11:08;;;;;;;44.13;12.82;;;16.10;99.90;;;;;;6221668;23;20004;-94
2023/05/16 23:13:54;;;;;;;38.53;11.55;;;16.10;99.90;;;;;;6221634;23;20524;-93
2023/05/16 23:16:27;;;;;;;46.80;12.45;;;16.10;99.90;;;;;;6246450;23;20022;-93
2023/05/16 23:19:05;;;;;;;49.53;12.65;;;16.10;99.90;;;;;;6221142;23;20004;-94
2023/05/16 23:21:38;;;;;;;43.42;11.75;;;16.10;99.90;;;;;;6246427;22;20008;-92
2023/05/16 23:24:22;;;;;;;44.80;11.95;;;16.10;99.90;;;;;;6245523;23;20071;-93
2023/05/16 23:27:02;;;;;;;31.85;11.23;;;16.10;99.90;;;;;;6245932;23;20019;-93
2023/05/16 23:29:58;;;;;;;39.85;11.65;;;16.00;99.90;;;;;;6247174;23;20473;-93
2023/05/16 23:32:34;;;;;;;41.00;11.82;;;16.00;99.90;;;;;;6245443;22;20004;-92
2023/05/16 23:35:32;;;;;;;43.28;13.10;;;16.00;99.90;;;;;;6226486;23;20326;-94
2023/05/16 23:42:07;;;;;;;37.55;10.98;;;15.90;99.90;;;;;;6247749;22;20469;-92
2023/05/16 23:48:35;;;;;;;40.65;11.55;;;15.90;99.90;;;;;;6242431;23;20079;-93
2023/05/16 23:51:30;;;;;;;27.15;11.43;;;15.80;99.90;;;;;;6220844;23;20008;-93
2023/05/16 23:54:36;;;;;;;30.23;12.02;;;15.80;99.90;;;;;;6220488;23;20024;-93
2023/05/16 23:57:44;;;;;;;;;;;;;;;;;;;;;
